createdAt,value
2018-09-21T00:00:00.407Z,3.30
2018-09-21T00:02:28.607Z,4.60
2018-09-21T00:04:56.800Z,4.10
2018-09-21T00:07:25.002Z,4.07
2018-09-21T00:09:53.221Z,4.80
2018-09-21T00:12:21.447Z,3.73
2018-09-21T00:14:49.713Z,4.70
2018-09-21T00:17:17.892Z,4.33
2018-09-21T00:19:46.103Z,4.47
2018-09-21T00:22:14.351Z,4.40
2018-09-21T00:24:42.590Z,4.77
2018-09-21T00:27:10.807Z,5.17
2018-09-21T00:29:39.018Z,4.70
2018-09-21T00:32:07.257Z,4.63
2018-09-21T00:34:35.452Z,4.83
2018-09-21T00:37:03.683Z,4.63
2018-09-21T00:39:31.894Z,4.53
2018-09-21T00:42:00.103Z,4.37
2018-09-21T00:44:28.365Z,4.13
2018-09-21T00:46:56.579Z,3.97
2018-09-21T00:49:24.827Z,3.50
2018-09-21T00:51:53.047Z,3.63
2018-09-21T00:54:21.222Z,3.70
2018-09-21T00:56:49.433Z,3.53
2018-09-21T00:59:17.676Z,4.13
2018-09-21T01:01:45.910Z,4.13
2018-09-21T01:04:14.228Z,3.33
2018-09-21T01:06:42.447Z,3.80
2018-09-21T01:09:11.712Z,4.03
2018-09-21T01:11:40.179Z,3.93
2018-09-21T01:14:08.440Z,3.97
2018-09-21T01:16:36.673Z,4.00
2018-09-21T01:19:05.631Z,3.87
2018-09-21T01:21:33.843Z,4.27
2018-09-21T01:24:02.059Z,4.30
2018-09-21T01:26:30.263Z,4.80
2018-09-21T01:28:58.557Z,4.07
2018-09-21T01:31:26.765Z,4.23
2018-09-21T01:33:54.958Z,4.37
2018-09-21T01:36:23.176Z,3.57
2018-09-21T01:38:51.404Z,3.87
2018-09-21T01:41:19.681Z,4.30
2018-09-21T01:43:47.876Z,3.80
2018-09-21T01:46:16.104Z,4.57
2018-09-21T01:48:44.340Z,4.47
2018-09-21T01:51:12.545Z,3.90
2018-09-21T01:53:40.752Z,4.20
2018-09-21T01:56:08.943Z,4.70
2018-09-21T01:58:37.124Z,3.83
2018-09-21T02:01:05.340Z,4.17
2018-09-21T02:03:33.531Z,4.20
2018-09-21T02:06:01.753Z,4.47
2018-09-21T02:08:29.956Z,4.20
2018-09-21T02:10:58.183Z,4.53
2018-09-21T02:13:26.392Z,4.63
2018-09-21T02:15:54.643Z,4.17
2018-09-21T02:18:22.887Z,4.43
2018-09-21T02:20:51.091Z,4.60
2018-09-21T02:23:19.307Z,5.20
2018-09-21T02:25:47.521Z,4.80
2018-09-21T02:28:15.771Z,4.30
2018-09-21T02:30:43.994Z,4.87
2018-09-21T02:33:12.194Z,4.77
2018-09-21T02:35:40.392Z,4.70
2018-09-21T02:38:08.678Z,4.53
2018-09-21T02:40:36.902Z,4.67
2018-09-21T02:43:05.111Z,4.53
2018-09-21T02:45:33.303Z,4.20
2018-09-21T02:48:01.508Z,4.37
2018-09-21T02:50:29.769Z,4.70
2018-09-21T02:52:58.019Z,4.40
2018-09-21T02:55:26.303Z,5.10
2018-09-21T02:57:54.507Z,4.47
2018-09-21T03:00:22.717Z,4.60
2018-09-21T03:02:50.915Z,4.50
2018-09-21T03:05:19.147Z,4.93
2018-09-21T03:07:47.359Z,4.77
2018-09-21T03:10:15.604Z,4.67
2018-09-21T03:12:43.838Z,4.67
2018-09-21T03:15:12.060Z,3.93
2018-09-21T03:17:40.276Z,4.30
2018-09-21T03:20:08.522Z,4.80
2018-09-21T03:22:36.713Z,4.60
2018-09-21T03:25:04.951Z,4.77
2018-09-21T03:27:33.233Z,4.57
2018-09-21T03:30:01.448Z,4.80
2018-09-21T03:32:29.697Z,5.03
2018-09-21T03:34:57.954Z,5.60
2018-09-21T03:37:26.109Z,5.43
2018-09-21T03:39:54.364Z,5.13
2018-09-21T03:42:22.588Z,5.30
2018-09-21T03:44:50.798Z,5.07
2018-09-21T03:47:19.052Z,4.90
2018-09-21T03:49:47.282Z,4.80
2018-09-21T03:52:15.508Z,4.50
2018-09-21T03:54:43.764Z,4.67
2018-09-21T03:57:11.996Z,4.70
2018-09-21T03:59:40.211Z,4.43
2018-09-21T04:02:08.412Z,4.37
2018-09-21T04:04:40.842Z,3.83
2018-09-21T04:07:09.280Z,4.53
2018-09-21T04:09:37.477Z,4.13
2018-09-21T04:12:05.753Z,3.93
2018-09-21T04:14:33.927Z,3.97
2018-09-21T04:17:02.199Z,4.23
2018-09-21T04:19:30.436Z,3.87
2018-09-21T04:21:58.619Z,4.60
2018-09-21T04:24:26.804Z,4.33
2018-09-21T04:26:55.348Z,4.20
2018-09-21T04:29:23.566Z,4.27
2018-09-21T04:31:51.767Z,4.30
2018-09-21T04:34:20.013Z,4.00
2018-09-21T04:36:48.222Z,4.33
2018-09-21T04:39:16.420Z,4.30
2018-09-21T04:41:44.619Z,4.20
2018-09-21T04:44:12.796Z,4.90
2018-09-21T04:46:40.996Z,4.57
2018-09-21T04:49:09.187Z,4.67
2018-09-21T04:51:37.378Z,4.00
2018-09-21T04:54:05.554Z,4.40
2018-09-21T04:56:33.744Z,4.50
2018-09-21T04:59:01.930Z,4.23
2018-09-21T05:01:30.078Z,5.07
2018-09-21T05:03:58.316Z,4.60
2018-09-21T05:06:26.490Z,3.97
2018-09-21T05:08:54.685Z,4.43
2018-09-21T05:11:22.875Z,4.20
2018-09-21T05:13:51.113Z,4.20
2018-09-21T05:16:19.291Z,4.60
2018-09-21T05:18:47.574Z,4.73
2018-09-21T05:21:16.051Z,4.93
2018-09-21T05:23:44.291Z,5.07
2018-09-21T05:26:12.535Z,4.60
2018-09-21T05:28:40.739Z,6.80
2018-09-21T05:31:08.926Z,7.10
2018-09-21T05:33:37.107Z,5.20
2018-09-21T05:36:05.315Z,5.70
2018-09-21T05:38:33.498Z,4.90
2018-09-21T05:41:01.696Z,5.93
2018-09-21T05:43:29.959Z,5.03
2018-09-21T05:45:58.158Z,5.40
2018-09-21T05:48:26.346Z,5.60
2018-09-21T05:50:54.550Z,4.77
2018-09-21T05:53:22.751Z,5.17
2018-09-21T05:55:50.930Z,5.07
2018-09-21T05:58:19.107Z,5.33
2018-09-21T06:00:47.313Z,6.00
2018-09-21T06:03:15.504Z,4.77
2018-09-21T06:05:43.679Z,6.10
2018-09-21T06:08:11.868Z,5.10
2018-09-21T06:10:40.096Z,5.40
2018-09-21T06:13:08.307Z,4.67
2018-09-21T06:15:36.506Z,5.53
2018-09-21T06:18:04.727Z,5.27
2018-09-21T06:20:32.948Z,5.30
2018-09-21T06:23:01.182Z,5.70
2018-09-21T06:25:29.291Z,5.30
2018-09-21T06:27:57.484Z,5.87
2018-09-21T06:30:25.653Z,5.57
2018-09-21T06:32:53.815Z,5.33
2018-09-21T06:35:21.984Z,5.67
2018-09-21T06:37:50.225Z,5.40
2018-09-21T06:40:18.439Z,6.00
2018-09-21T06:42:46.707Z,5.20
2018-09-21T06:45:14.880Z,5.73
2018-09-21T06:47:43.128Z,6.80
2018-09-21T06:50:11.403Z,5.13
2018-09-21T06:52:39.763Z,4.93
2018-09-21T06:55:07.954Z,5.17
2018-09-21T06:57:36.114Z,5.37
2018-09-21T07:00:04.382Z,5.00
2018-09-21T07:02:32.572Z,5.10
2018-09-21T07:05:06.081Z,5.07
2018-09-21T07:07:34.299Z,4.73
2018-09-21T07:10:02.509Z,5.13
2018-09-21T07:12:30.743Z,4.63
2018-09-21T07:14:58.962Z,4.57
2018-09-21T07:17:27.134Z,4.90
2018-09-21T07:19:55.367Z,4.73
2018-09-21T07:22:23.555Z,5.43
2018-09-21T07:24:51.794Z,4.57
2018-09-21T07:27:20.043Z,4.90
2018-09-21T07:29:48.210Z,4.80
2018-09-21T07:32:16.415Z,4.00
2018-09-21T07:34:44.600Z,3.93
2018-09-21T07:37:12.855Z,4.20
2018-09-21T07:39:41.032Z,3.93
2018-09-21T07:42:09.239Z,4.00
2018-09-21T07:44:37.564Z,4.07
2018-09-21T07:47:05.775Z,3.47
2018-09-21T07:49:33.947Z,3.50
2018-09-21T07:52:02.147Z,3.30
2018-09-21T07:54:30.362Z,3.20
2018-09-21T07:56:58.537Z,4.17
2018-09-21T07:59:26.716Z,3.53
2018-09-21T08:01:54.937Z,2.87
2018-09-21T08:04:23.135Z,3.07
2018-09-21T08:06:51.439Z,2.90
2018-09-21T08:09:19.659Z,3.17
2018-09-21T08:11:47.950Z,2.90
2018-09-21T08:14:16.223Z,2.80
2018-09-21T08:16:44.400Z,2.83
2018-09-21T08:19:12.638Z,3.00
2018-09-21T08:21:40.849Z,2.77
2018-09-21T08:24:09.027Z,2.40
2018-09-21T08:26:37.319Z,2.57
2018-09-21T08:29:05.552Z,2.63
2018-09-21T08:31:33.826Z,2.80
2018-09-21T08:34:01.969Z,2.33
2018-09-21T08:36:30.136Z,3.10
2018-09-21T08:38:58.308Z,2.70
2018-09-21T08:41:26.518Z,2.87
2018-09-21T08:43:54.710Z,2.47
2018-09-21T08:46:22.931Z,2.40
2018-09-21T08:48:51.135Z,2.53
2018-09-21T08:51:19.474Z,2.50
2018-09-21T08:53:47.666Z,2.73
2018-09-21T08:56:15.857Z,2.60
2018-09-21T08:58:44.054Z,3.23
2018-09-21T09:01:12.326Z,6.70
2018-09-21T09:03:40.570Z,2.20
2018-09-21T09:06:08.860Z,2.40
2018-09-21T09:08:37.050Z,2.43
2018-09-21T09:11:05.370Z,1.83
2018-09-21T09:13:33.542Z,1.87
2018-09-21T09:16:01.852Z,2.17
2018-09-21T09:18:30.102Z,2.03
2018-09-21T09:20:58.362Z,2.10
2018-09-21T09:23:26.557Z,2.10
2018-09-21T09:25:54.762Z,2.10
2018-09-21T09:28:23.084Z,1.83
2018-09-21T09:30:51.279Z,1.97
2018-09-21T09:33:19.470Z,2.70
2018-09-21T09:35:47.659Z,2.40
2018-09-21T09:38:15.871Z,2.80
2018-09-21T09:40:44.143Z,3.13
2018-09-21T09:43:12.405Z,2.80
2018-09-21T09:45:40.536Z,2.73
2018-09-21T09:48:08.712Z,2.40
2018-09-21T09:50:36.902Z,2.23
2018-09-21T09:53:05.187Z,2.67
2018-09-21T09:55:33.441Z,2.70
2018-09-21T09:58:01.610Z,2.60
2018-09-21T10:00:35.728Z,2.40
2018-09-21T10:03:03.999Z,2.23
2018-09-21T10:05:32.222Z,2.37
2018-09-21T10:08:00.383Z,3.10
2018-09-21T10:10:28.593Z,3.13
2018-09-21T10:12:56.744Z,2.80
2018-09-21T10:15:25.011Z,2.00
2018-09-21T10:17:53.147Z,2.63
2018-09-21T10:20:21.307Z,2.27
2018-09-21T10:22:49.478Z,2.07
2018-09-21T10:25:17.699Z,2.10
2018-09-21T10:27:46.185Z,1.93
2018-09-21T10:30:14.180Z,2.40
2018-09-21T10:32:42.334Z,1.73
2018-09-21T10:35:10.524Z,2.00
2018-09-21T10:37:38.738Z,1.90
2018-09-21T10:40:06.969Z,2.13
2018-09-21T10:42:35.138Z,2.10
2018-09-21T10:45:03.292Z,2.70
2018-09-21T10:47:31.539Z,2.70
2018-09-21T10:49:59.703Z,2.23
2018-09-21T10:52:27.936Z,2.17
2018-09-21T10:54:56.249Z,1.73
2018-09-21T10:57:24.433Z,2.73
2018-09-21T10:59:52.655Z,2.07
2018-09-21T11:02:20.854Z,1.80
2018-09-21T11:04:49.053Z,2.17
2018-09-21T11:07:17.286Z,2.20
2018-09-21T11:09:45.431Z,2.27
2018-09-21T11:12:13.658Z,2.30
2018-09-21T11:14:41.899Z,2.00
2018-09-21T11:17:10.183Z,2.37
2018-09-21T11:19:38.365Z,2.30
2018-09-21T11:22:06.627Z,2.23
2018-09-21T11:24:34.895Z,2.13
2018-09-21T11:27:03.114Z,2.63
2018-09-21T11:29:31.350Z,2.57
2018-09-21T11:32:00.941Z,2.37
2018-09-21T11:34:29.129Z,2.00
2018-09-21T11:36:57.324Z,2.57
2018-09-21T11:39:25.496Z,2.27
2018-09-21T11:41:53.731Z,2.37
2018-09-21T11:44:21.996Z,1.97
2018-09-21T11:46:50.209Z,2.17
2018-09-21T11:49:18.471Z,2.50
2018-09-21T11:51:46.786Z,2.87
2018-09-21T11:54:14.975Z,2.57
2018-09-21T11:56:43.183Z,3.07
2018-09-21T11:59:11.398Z,2.60
2018-09-21T12:01:39.633Z,2.87
2018-09-21T12:04:07.824Z,2.50
2018-09-21T12:06:36.036Z,2.60
2018-09-21T12:09:05.026Z,2.60
2018-09-21T12:11:33.211Z,2.47
2018-09-21T12:14:01.385Z,2.80
2018-09-21T12:16:29.614Z,2.40
2018-09-21T12:18:57.855Z,2.07
2018-09-21T12:21:26.084Z,2.13
2018-09-21T12:23:54.288Z,2.77
2018-09-21T12:26:22.783Z,2.20
2018-09-21T12:28:50.962Z,2.30
2018-09-21T12:31:19.172Z,2.13
2018-09-21T12:33:47.335Z,2.00
2018-09-21T12:36:15.544Z,2.33
2018-09-21T12:38:43.778Z,2.23
2018-09-21T12:41:11.960Z,1.90
2018-09-21T12:43:40.174Z,2.50
2018-09-21T12:46:11.568Z,2.00
2018-09-21T12:48:39.786Z,2.17
2018-09-21T12:51:07.999Z,1.87
2018-09-21T12:53:36.245Z,2.00
2018-09-21T12:56:04.420Z,1.93
2018-09-21T12:58:32.825Z,2.33
2018-09-21T13:01:00.932Z,1.43
2018-09-21T13:03:29.126Z,1.30
2018-09-21T13:05:57.683Z,2.00
2018-09-21T13:08:26.964Z,1.73
2018-09-21T13:10:55.855Z,2.10
2018-09-21T13:13:24.055Z,1.37
2018-09-21T13:15:52.799Z,1.70
2018-09-21T13:18:21.012Z,1.50
2018-09-21T13:20:49.260Z,1.60
2018-09-21T13:23:17.431Z,1.80
2018-09-21T13:25:45.649Z,1.80
2018-09-21T13:28:13.871Z,1.53
2018-09-21T13:30:42.146Z,1.70
2018-09-21T13:33:10.330Z,1.80
2018-09-21T13:35:38.532Z,1.63
2018-09-21T13:38:06.686Z,1.70
2018-09-21T13:40:34.862Z,1.63
2018-09-21T13:43:03.050Z,1.80
2018-09-21T13:45:31.274Z,1.30
2018-09-21T13:47:59.503Z,1.50
2018-09-21T13:50:27.779Z,1.30
2018-09-21T13:52:55.984Z,1.60
2018-09-21T13:55:24.239Z,1.40
2018-09-21T13:57:52.598Z,1.40
2018-09-21T14:00:20.777Z,1.63
2018-09-21T14:02:48.983Z,1.13
2018-09-21T14:05:17.216Z,1.20
2018-09-21T14:07:45.434Z,0.90
2018-09-21T14:10:13.625Z,1.43
2018-09-21T14:12:41.823Z,0.53
2018-09-21T14:15:10.020Z,0.70
2018-09-21T14:17:38.211Z,0.60
2018-09-21T14:20:06.691Z,0.57
2018-09-21T14:22:34.883Z,0.60
2018-09-21T14:25:03.127Z,0.90
2018-09-21T14:27:31.449Z,1.13
2018-09-21T14:29:59.654Z,1.13
2018-09-21T14:32:27.851Z,1.00
2018-09-21T14:34:56.048Z,0.80
2018-09-21T14:37:24.245Z,0.83
2018-09-21T14:39:52.443Z,0.80
2018-09-21T14:42:20.628Z,0.50
2018-09-21T14:44:48.833Z,0.80
2018-09-21T14:47:16.999Z,0.53
2018-09-21T14:49:45.175Z,0.70
2018-09-21T14:52:13.356Z,0.73
2018-09-21T14:54:41.535Z,0.50
2018-09-21T14:57:09.810Z,0.60
2018-09-21T14:59:37.991Z,0.67
2018-09-21T15:02:06.762Z,0.77
2018-09-21T15:04:34.935Z,0.60
2018-09-21T15:07:03.106Z,0.80
2018-09-21T15:09:31.316Z,0.70
2018-09-21T15:11:59.516Z,0.80
2018-09-21T15:14:27.694Z,0.80
2018-09-21T15:16:55.932Z,0.90
2018-09-21T15:19:24.113Z,1.00
2018-09-21T15:21:52.285Z,1.17
2018-09-21T15:24:20.454Z,0.60
2018-09-21T15:26:48.668Z,0.70
2018-09-21T15:29:16.847Z,0.90
2018-09-21T15:31:45.054Z,1.07
2018-09-21T15:34:13.351Z,0.90
2018-09-21T15:36:41.519Z,0.63
2018-09-21T15:39:11.316Z,0.70
2018-09-21T15:41:39.945Z,0.63
2018-09-21T15:44:08.185Z,0.60
2018-09-21T15:46:37.218Z,0.90
2018-09-21T15:49:05.837Z,0.90
2018-09-21T15:51:34.856Z,0.80
2018-09-21T15:54:03.019Z,0.70
2018-09-21T15:56:31.243Z,0.60
2018-09-21T15:58:59.779Z,0.80
2018-09-21T16:01:28.367Z,0.93
2018-09-21T16:03:56.555Z,0.73
2018-09-21T16:06:24.744Z,0.80
2018-09-21T16:08:52.938Z,1.00
2018-09-21T16:11:21.147Z,0.80
2018-09-21T16:13:49.346Z,0.73
2018-09-21T16:16:17.602Z,0.90
2018-09-21T16:18:46.135Z,0.80
2018-09-21T16:21:14.374Z,1.00
2018-09-21T16:23:42.522Z,1.30
2018-09-21T16:26:10.781Z,1.10
2018-09-21T16:28:38.991Z,1.10
2018-09-21T16:31:07.386Z,0.90
2018-09-21T16:33:35.560Z,0.90
2018-09-21T16:36:03.774Z,1.10
2018-09-21T16:38:31.916Z,1.00
2018-09-21T16:41:00.098Z,0.93
2018-09-21T16:43:28.295Z,1.20
2018-09-21T16:45:56.511Z,0.77
2018-09-21T16:48:24.711Z,0.90
2018-09-21T16:50:52.931Z,1.30
2018-09-21T16:53:21.287Z,1.17
2018-09-21T16:55:49.447Z,1.00
2018-09-21T16:58:17.640Z,1.07
2018-09-21T17:00:45.808Z,1.20
2018-09-21T17:03:14.011Z,1.00
2018-09-21T17:05:42.182Z,1.03
2018-09-21T17:08:10.404Z,0.83
2018-09-21T17:10:38.573Z,0.90
2018-09-21T17:13:06.748Z,0.93
2018-09-21T17:15:34.962Z,1.13
2018-09-21T17:18:03.174Z,0.70
2018-09-21T17:20:31.404Z,0.90
2018-09-21T17:22:59.642Z,1.13
2018-09-21T17:25:27.953Z,1.10
2018-09-21T17:27:56.274Z,1.03
2018-09-21T17:30:24.456Z,1.17
2018-09-21T17:32:52.614Z,1.10
2018-09-21T17:35:20.831Z,1.10
2018-09-21T17:37:49.074Z,0.77
2018-09-21T17:40:17.207Z,1.00
2018-09-21T17:42:45.395Z,0.93
2018-09-21T17:45:13.561Z,0.87
2018-09-21T17:47:41.759Z,0.77
2018-09-21T17:50:09.963Z,1.00
2018-09-21T17:52:38.251Z,0.80
2018-09-21T17:55:06.412Z,1.23
2018-09-21T17:57:34.573Z,1.00
2018-09-21T18:00:02.780Z,1.30
2018-09-21T18:02:30.979Z,1.00
2018-09-21T18:04:59.196Z,1.00
2018-09-21T18:07:27.389Z,1.10
2018-09-21T18:09:55.522Z,1.23
2018-09-21T18:12:23.728Z,1.10
2018-09-21T18:14:51.921Z,1.20
2018-09-21T18:17:20.379Z,1.77
2018-09-21T18:19:48.544Z,1.20
2018-09-21T18:22:16.698Z,1.50
2018-09-21T18:24:44.904Z,1.97
2018-09-21T18:27:13.126Z,1.30
2018-09-21T18:29:41.356Z,1.03
2018-09-21T18:32:09.551Z,0.70
2018-09-21T18:34:37.720Z,1.23
2018-09-21T18:37:05.911Z,1.20
2018-09-21T18:39:34.189Z,1.40
2018-09-21T18:42:02.319Z,1.30
2018-09-21T18:44:30.474Z,1.60
2018-09-21T18:46:58.641Z,1.50
2018-09-21T18:49:26.830Z,1.20
2018-09-21T18:51:55.091Z,1.57
2018-09-21T18:54:23.295Z,1.57
2018-09-21T18:56:51.478Z,1.40
2018-09-21T18:59:19.652Z,1.20
2018-09-21T19:01:47.813Z,1.37
2018-09-21T19:04:16.052Z,1.43
2018-09-21T19:06:44.248Z,1.67
2018-09-21T19:09:13.027Z,1.33
2018-09-21T19:11:41.270Z,1.47
2018-09-21T19:14:09.990Z,1.17
2018-09-21T19:16:38.772Z,1.87
2018-09-21T19:19:07.510Z,1.47
2018-09-21T19:21:36.579Z,2.70
2018-09-21T19:24:05.117Z,1.80
2018-09-21T19:26:33.485Z,1.10
2018-09-21T19:29:02.395Z,1.33
2018-09-21T19:31:30.681Z,1.70
2018-09-21T19:33:58.989Z,1.60
2018-09-21T19:36:27.257Z,1.63
2018-09-21T19:38:55.550Z,1.77
2018-09-21T19:41:23.917Z,1.83
2018-09-21T19:43:52.334Z,1.50
2018-09-21T19:46:20.697Z,1.37
2018-09-21T19:48:49.107Z,1.83
2018-09-21T19:51:17.342Z,1.00
2018-09-21T19:53:45.590Z,1.60
2018-09-21T19:56:14.468Z,1.97
2018-09-21T19:58:43.112Z,1.50
2018-09-21T20:01:11.549Z,1.33
2018-09-21T20:03:40.424Z,1.67
2018-09-21T20:06:10.060Z,1.60
2018-09-21T20:08:38.794Z,1.97
2018-09-21T20:11:07.144Z,1.47
2018-09-21T20:13:35.375Z,1.67
2018-09-21T20:16:03.662Z,1.77
2018-09-21T20:18:32.011Z,1.27
2018-09-21T20:21:00.298Z,1.53
2018-09-21T20:23:28.532Z,1.47
2018-09-21T20:25:56.810Z,1.47
2018-09-21T20:28:25.085Z,2.43
2018-09-21T20:30:59.134Z,1.80
2018-09-21T20:33:30.038Z,1.50
2018-09-21T20:35:59.130Z,1.50
2018-09-21T20:38:28.399Z,2.20
2018-09-21T20:40:57.359Z,1.70
2018-09-21T20:43:26.036Z,1.30
2018-09-21T20:45:55.033Z,1.77
2018-09-21T20:48:23.758Z,1.60
2018-09-21T20:50:52.364Z,1.40
2018-09-21T20:53:20.858Z,2.57
2018-09-21T20:55:49.165Z,2.00
2018-09-21T20:58:17.465Z,1.93
2018-09-21T21:00:45.793Z,1.50
2018-09-21T21:03:14.131Z,1.97
2018-09-21T21:05:42.389Z,2.43
2018-09-21T21:08:10.652Z,2.67
2018-09-21T21:10:38.982Z,2.20
2018-09-21T21:13:07.472Z,1.70
2018-09-21T21:15:35.697Z,3.17
2018-09-21T21:18:03.955Z,2.00
2018-09-21T21:20:32.231Z,1.90
2018-09-21T21:23:00.610Z,2.20
2018-09-21T21:25:28.905Z,1.97
2018-09-21T21:27:57.158Z,2.13
2018-09-21T21:30:25.595Z,2.17
2018-09-21T21:32:53.885Z,2.00
2018-09-21T21:35:22.138Z,1.90
2018-09-21T21:37:50.459Z,1.90
2018-09-21T21:40:18.757Z,2.10
2018-09-21T21:42:47.073Z,2.30
2018-09-21T21:45:15.354Z,2.23
2018-09-21T21:47:43.632Z,2.30
2018-09-21T21:50:11.949Z,2.47
2018-09-21T21:52:40.340Z,2.03
2018-09-21T21:55:08.640Z,2.30
2018-09-21T21:57:36.907Z,1.93
2018-09-21T22:00:06.806Z,2.00
2018-09-21T22:02:35.079Z,2.63
2018-09-21T22:05:03.577Z,2.60
2018-09-21T22:07:35.310Z,2.43
2018-09-21T22:10:05.454Z,2.27
2018-09-21T22:12:38.817Z,2.23
2018-09-21T22:15:13.514Z,2.37
2018-09-21T22:17:41.826Z,2.50
2018-09-21T22:20:10.136Z,2.30
2018-09-21T22:22:38.431Z,2.27
2018-09-21T22:25:06.870Z,2.00
2018-09-21T22:27:35.225Z,2.50
2018-09-21T22:30:03.584Z,2.37
2018-09-21T22:32:31.890Z,2.13
2018-09-21T22:35:00.181Z,1.90
2018-09-21T22:37:28.804Z,2.07
2018-09-21T22:39:57.111Z,2.67
2018-09-21T22:42:25.578Z,1.67
2018-09-21T22:44:54.043Z,1.80
2018-09-21T22:47:22.326Z,2.00
2018-09-21T22:49:50.590Z,2.47
2018-09-21T22:52:18.873Z,2.17
2018-09-21T22:54:47.260Z,2.77
2018-09-21T22:57:15.590Z,2.27
2018-09-21T22:59:43.871Z,2.13
2018-09-21T23:02:12.163Z,2.83
2018-09-21T23:04:40.455Z,2.40
2018-09-21T23:07:08.716Z,2.20
2018-09-21T23:09:37.062Z,2.63
2018-09-21T23:12:05.346Z,2.13
2018-09-21T23:14:33.750Z,2.07
2018-09-21T23:17:02.016Z,2.67
2018-09-21T23:19:30.365Z,2.90
2018-09-21T23:21:58.665Z,2.53
2018-09-21T23:24:26.977Z,2.03
2018-09-21T23:26:55.258Z,2.70
2018-09-21T23:29:23.738Z,2.43
2018-09-21T23:31:52.188Z,2.73
2018-09-21T23:34:21.280Z,2.03
2018-09-21T23:36:49.591Z,2.90
2018-09-21T23:39:17.865Z,1.80
2018-09-21T23:41:46.174Z,2.50
2018-09-21T23:44:14.481Z,2.20
2018-09-21T23:46:42.761Z,2.20
2018-09-21T23:49:11.086Z,2.87
2018-09-21T23:51:39.474Z,2.13
2018-09-21T23:54:07.747Z,2.50
2018-09-21T23:56:36.022Z,2.73
2018-09-21T23:59:04.346Z,2.30
